createdAt,value
2018-09-26T00:00:51.932Z,47.40
2018-09-26T00:03:54.418Z,47.40
2018-09-26T00:06:20.912Z,47.40
2018-09-26T00:08:47.481Z,47.20
2018-09-26T00:11:14.027Z,47.40
2018-09-26T00:13:40.518Z,47.40
2018-09-26T00:16:07.008Z,47.80
2018-09-26T00:18:33.513Z,47.50
2018-09-26T00:20:59.970Z,46.90
2018-09-26T00:23:26.420Z,47.20
2018-09-26T00:25:52.912Z,47.40
2018-09-26T00:28:19.383Z,47.30
2018-09-26T00:30:45.857Z,47.30
2018-09-26T00:33:12.309Z,47.30
2018-09-26T00:35:38.837Z,47.40
2018-09-26T00:38:05.230Z,47.40
2018-09-26T00:40:31.778Z,47.30
2018-09-26T00:42:58.278Z,47.30
2018-09-26T00:45:24.738Z,47.30
2018-09-26T00:47:51.232Z,47.20
2018-09-26T00:50:17.708Z,47.40
2018-09-26T00:52:44.444Z,47.30
2018-09-26T00:55:10.909Z,47.40
2018-09-26T00:57:37.376Z,47.20
2018-09-26T01:00:03.848Z,47.30
2018-09-26T01:02:30.290Z,47.20
2018-09-26T01:04:56.785Z,47.20
2018-09-26T01:07:23.240Z,47.10
2018-09-26T01:09:49.759Z,47.10
2018-09-26T01:12:16.222Z,47.20
2018-09-26T01:14:43.158Z,47.30
2018-09-26T01:17:09.645Z,47.30
2018-09-26T01:19:36.114Z,47.20
2018-09-26T01:22:02.597Z,47.20
2018-09-26T01:24:29.084Z,47.10
2018-09-26T01:26:55.554Z,47.10
2018-09-26T01:29:22.024Z,47.20
2018-09-26T01:31:48.603Z,47.10
2018-09-26T01:34:15.066Z,47.10
2018-09-26T01:36:41.515Z,47.20
2018-09-26T01:39:08.683Z,47.10
2018-09-26T01:41:35.189Z,47.10
2018-09-26T01:44:01.622Z,47.10
2018-09-26T01:46:28.081Z,47.10
2018-09-26T01:48:54.533Z,47.10
2018-09-26T01:51:20.993Z,47.10
2018-09-26T01:53:47.458Z,47.10
2018-09-26T01:56:13.935Z,47.10
2018-09-26T01:58:40.398Z,47.20
2018-09-26T02:01:06.883Z,47.20
2018-09-26T02:03:33.351Z,47.10
2018-09-26T02:05:59.843Z,47.10
2018-09-26T02:08:26.293Z,47.10
2018-09-26T02:10:52.769Z,47.10
2018-09-26T02:13:19.226Z,47.10
2018-09-26T02:15:45.721Z,47.10
2018-09-26T02:18:12.217Z,47.10
2018-09-26T02:20:38.709Z,47.10
2018-09-26T02:23:05.269Z,47.10
2018-09-26T02:25:31.717Z,47.10
2018-09-26T02:27:58.272Z,47.10
2018-09-26T02:30:24.745Z,47.00
2018-09-26T02:32:51.229Z,47.00
2018-09-26T02:35:17.839Z,47.10
2018-09-26T02:37:44.299Z,47.10
2018-09-26T02:40:10.752Z,47.10
2018-09-26T02:42:37.216Z,47.00
2018-09-26T02:45:03.697Z,47.00
2018-09-26T02:47:30.145Z,47.00
2018-09-26T02:49:56.607Z,47.00
2018-09-26T02:52:23.111Z,47.00
2018-09-26T02:54:49.638Z,47.40
2018-09-26T02:57:16.151Z,46.60
2018-09-26T02:59:42.648Z,47.00
2018-09-26T03:02:09.107Z,47.00
2018-09-26T03:04:35.579Z,47.00
2018-09-26T03:07:02.023Z,47.00
2018-09-26T03:09:28.489Z,47.00
2018-09-26T03:11:54.938Z,47.00
2018-09-26T03:14:21.367Z,47.00
2018-09-26T03:16:47.865Z,47.00
2018-09-26T03:19:14.325Z,47.00
2018-09-26T03:21:40.811Z,47.00
2018-09-26T03:24:07.291Z,47.00
2018-09-26T03:26:33.750Z,47.00
2018-09-26T03:29:00.203Z,47.00
2018-09-26T03:31:26.679Z,47.20
2018-09-26T03:33:53.308Z,46.90
2018-09-26T03:36:19.681Z,47.10
2018-09-26T03:38:46.178Z,46.90
2018-09-26T03:41:12.632Z,46.90
2018-09-26T03:43:39.076Z,46.80
2018-09-26T03:46:05.816Z,46.90
2018-09-26T03:48:32.298Z,46.90
2018-09-26T03:50:58.756Z,46.90
2018-09-26T03:53:25.210Z,46.90
2018-09-26T03:55:51.674Z,46.90
2018-09-26T03:58:18.152Z,46.80
2018-09-26T04:00:44.656Z,46.90
2018-09-26T04:03:11.125Z,46.80
2018-09-26T04:05:37.590Z,46.80
2018-09-26T04:08:04.062Z,46.70
2018-09-26T04:10:30.494Z,46.70
2018-09-26T04:12:56.989Z,46.60
2018-09-26T04:15:23.411Z,46.70
2018-09-26T04:17:49.856Z,46.70
2018-09-26T04:20:16.358Z,46.90
2018-09-26T04:22:42.844Z,46.60
2018-09-26T04:25:09.272Z,46.60
2018-09-26T04:27:35.801Z,46.60
2018-09-26T04:30:02.292Z,46.60
2018-09-26T04:32:28.856Z,46.60
2018-09-26T04:34:55.313Z,46.70
2018-09-26T04:37:21.764Z,46.50
2018-09-26T04:39:48.217Z,46.70
2018-09-26T04:42:14.694Z,46.60
2018-09-26T04:44:41.541Z,46.70
2018-09-26T04:47:08.038Z,46.60
2018-09-26T04:49:34.510Z,46.50
2018-09-26T04:52:00.974Z,46.50
2018-09-26T04:54:27.423Z,46.50
2018-09-26T04:56:53.910Z,46.50
2018-09-26T04:59:20.358Z,47.10
2018-09-26T05:01:46.835Z,46.50
2018-09-26T05:04:13.321Z,46.60
2018-09-26T05:06:39.804Z,46.50
2018-09-26T05:09:06.344Z,46.40
2018-09-26T05:11:32.866Z,46.40
2018-09-26T05:13:59.450Z,46.60
2018-09-26T05:16:25.924Z,46.80
2018-09-26T05:18:52.392Z,46.70
2018-09-26T05:21:18.888Z,46.60
2018-09-26T05:23:45.653Z,46.60
2018-09-26T05:26:12.119Z,46.60
2018-09-26T05:28:38.577Z,46.70
2018-09-26T05:31:05.073Z,46.90
2018-09-26T05:33:31.597Z,46.60
2018-09-26T05:35:58.032Z,46.90
2018-09-26T05:38:24.507Z,46.90
2018-09-26T05:40:50.962Z,47.00
2018-09-26T05:43:17.454Z,47.00
2018-09-26T05:45:43.945Z,46.90
2018-09-26T05:48:10.402Z,47.10
2018-09-26T05:50:36.874Z,46.90
2018-09-26T05:53:03.377Z,46.90
2018-09-26T05:55:29.877Z,46.90
2018-09-26T05:57:56.340Z,47.00
2018-09-26T06:00:22.794Z,47.20
2018-09-26T06:02:49.246Z,47.10
2018-09-26T06:05:15.741Z,47.20
2018-09-26T06:07:42.204Z,47.10
2018-09-26T06:10:08.685Z,46.90
2018-09-26T06:12:35.181Z,46.80
2018-09-26T06:15:01.661Z,46.80
2018-09-26T06:17:28.148Z,46.90
2018-09-26T06:19:54.605Z,46.80
2018-09-26T06:22:21.056Z,47.50
2018-09-26T06:24:47.565Z,46.80
2018-09-26T06:27:14.019Z,47.30
2018-09-26T06:29:40.498Z,46.80
2018-09-26T06:32:06.961Z,46.80
2018-09-26T06:34:33.683Z,46.80
2018-09-26T06:37:00.158Z,46.80
2018-09-26T06:39:26.610Z,46.80
2018-09-26T06:41:53.039Z,47.40
2018-09-26T06:44:19.522Z,46.90
2018-09-26T06:46:46.043Z,46.80
2018-09-26T06:49:12.479Z,46.80
2018-09-26T06:51:38.949Z,46.90
2018-09-26T06:54:05.650Z,46.90
2018-09-26T06:56:32.228Z,46.80
2018-09-26T06:58:58.718Z,46.80
2018-09-26T07:01:25.201Z,46.80
2018-09-26T07:03:51.691Z,46.80
2018-09-26T07:06:18.281Z,47.40
2018-09-26T07:08:44.834Z,46.80
2018-09-26T07:11:11.314Z,46.80
2018-09-26T07:13:37.784Z,46.70
2018-09-26T07:16:04.309Z,46.70
2018-09-26T07:18:30.777Z,46.80
2018-09-26T07:20:57.234Z,46.70
2018-09-26T07:23:23.703Z,46.70
2018-09-26T07:25:50.191Z,46.70
2018-09-26T07:28:16.655Z,46.40
2018-09-26T07:30:43.158Z,46.40
2018-09-26T07:33:09.671Z,46.40
2018-09-26T07:35:36.134Z,46.40
2018-09-26T07:38:02.595Z,46.40
2018-09-26T07:40:29.053Z,46.20
2018-09-26T07:42:55.537Z,46.20
2018-09-26T07:45:22.213Z,46.40
2018-09-26T07:47:48.677Z,46.40
2018-09-26T07:50:15.142Z,46.40
2018-09-26T07:52:41.595Z,46.30
2018-09-26T07:55:08.081Z,46.20
2018-09-26T07:57:34.555Z,46.20
2018-09-26T08:00:01.064Z,46.20
2018-09-26T08:02:27.563Z,46.20
2018-09-26T08:04:54.142Z,46.20
2018-09-26T08:07:20.641Z,46.30
2018-09-26T08:09:47.083Z,46.10
2018-09-26T08:12:13.563Z,46.00
2018-09-26T08:14:40.008Z,46.00
2018-09-26T08:17:06.457Z,45.80
2018-09-26T08:19:32.967Z,45.80
2018-09-26T08:21:59.418Z,46.00
2018-09-26T08:24:25.908Z,45.70
2018-09-26T08:26:52.354Z,45.70
2018-09-26T08:29:18.870Z,46.30
2018-09-26T08:31:45.361Z,45.70
2018-09-26T08:34:11.838Z,45.80
2018-09-26T08:36:38.371Z,46.30
2018-09-26T08:39:04.826Z,45.60
2018-09-26T08:41:31.278Z,45.60
2018-09-26T08:43:57.869Z,45.70
2018-09-26T08:46:24.347Z,45.60
2018-09-26T08:48:50.804Z,45.50
2018-09-26T08:51:17.312Z,45.40
2018-09-26T08:53:43.817Z,45.30
2018-09-26T08:56:10.357Z,45.40
2018-09-26T08:58:36.964Z,45.40
2018-09-26T09:01:03.474Z,45.40
2018-09-26T09:03:30.084Z,45.40
2018-09-26T09:05:56.611Z,45.30
2018-09-26T09:08:23.073Z,45.40
2018-09-26T09:10:49.551Z,45.30
2018-09-26T09:13:16.037Z,45.20
2018-09-26T09:15:42.529Z,45.20
2018-09-26T09:18:09.014Z,45.00
2018-09-26T09:20:35.489Z,45.00
2018-09-26T09:23:02.016Z,45.00
2018-09-26T09:25:28.474Z,45.00
2018-09-26T09:27:55.118Z,45.00
2018-09-26T09:30:21.628Z,44.90
2018-09-26T09:32:48.389Z,45.00
2018-09-26T09:35:14.861Z,45.00
2018-09-26T09:37:41.337Z,45.10
2018-09-26T09:40:07.807Z,45.00
2018-09-26T09:42:34.271Z,45.00
2018-09-26T09:45:00.745Z,44.90
2018-09-26T09:47:27.200Z,44.80
2018-09-26T09:49:53.804Z,44.80
2018-09-26T09:52:20.258Z,44.80
2018-09-26T09:54:46.710Z,44.90
2018-09-26T09:57:13.138Z,44.60
2018-09-26T09:59:39.627Z,44.70
2018-09-26T10:02:06.143Z,44.70
2018-09-26T10:04:32.625Z,44.80
2018-09-26T10:06:59.173Z,44.80
2018-09-26T10:09:25.653Z,44.80
2018-09-26T10:11:52.112Z,45.30
2018-09-26T10:14:18.652Z,44.80
2018-09-26T10:16:45.099Z,44.70
2018-09-26T10:19:11.581Z,44.60
2018-09-26T10:21:38.168Z,44.70
2018-09-26T10:24:04.650Z,44.70
2018-09-26T10:26:31.132Z,44.70
2018-09-26T10:28:57.589Z,44.70
2018-09-26T10:31:24.085Z,44.80
2018-09-26T10:33:50.548Z,44.70
2018-09-26T10:36:17.027Z,44.70
2018-09-26T10:38:43.644Z,44.60
2018-09-26T10:41:10.109Z,44.70
2018-09-26T10:43:36.705Z,44.70
2018-09-26T10:46:03.211Z,44.70
2018-09-26T10:48:29.685Z,44.60
2018-09-26T10:50:56.177Z,44.60
2018-09-26T10:53:22.633Z,44.60
2018-09-26T10:55:49.085Z,44.70
2018-09-26T10:58:15.547Z,44.70
2018-09-26T11:00:42.038Z,44.70
2018-09-26T11:03:08.573Z,44.70
2018-09-26T11:05:35.045Z,44.60
2018-09-26T11:08:01.533Z,44.70
2018-09-26T11:10:28.126Z,44.70
2018-09-26T11:12:54.617Z,44.80
2018-09-26T11:15:21.136Z,44.80
2018-09-26T11:17:47.727Z,44.70
2018-09-26T11:20:14.221Z,44.60
2018-09-26T11:22:40.651Z,44.70
2018-09-26T11:25:07.154Z,44.70
2018-09-26T11:27:33.656Z,44.70
2018-09-26T11:30:00.118Z,44.70
2018-09-26T11:32:26.685Z,44.70
2018-09-26T11:34:53.421Z,44.70
2018-09-26T11:37:19.887Z,44.60
2018-09-26T11:39:46.368Z,44.60
2018-09-26T11:42:12.847Z,44.80
2018-09-26T11:44:39.851Z,44.80
2018-09-26T11:47:06.302Z,44.90
2018-09-26T11:49:32.770Z,45.00
2018-09-26T11:51:59.247Z,44.90
2018-09-26T11:54:26.043Z,44.90
2018-09-26T11:56:52.629Z,44.90
2018-09-26T11:59:19.141Z,44.90
2018-09-26T12:01:45.588Z,44.90
2018-09-26T12:04:12.071Z,45.00
2018-09-26T12:06:38.577Z,45.00
2018-09-26T12:09:05.054Z,44.90
2018-09-26T12:11:31.533Z,44.90
2018-09-26T12:13:58.070Z,44.90
2018-09-26T12:16:24.481Z,44.90
2018-09-26T12:18:50.895Z,44.90
2018-09-26T12:21:17.407Z,44.90
2018-09-26T12:23:43.959Z,44.90
2018-09-26T12:26:10.438Z,44.80
2018-09-26T12:28:36.982Z,44.80
2018-09-26T12:31:03.434Z,44.80
2018-09-26T12:33:30.057Z,44.70
2018-09-26T12:35:56.498Z,44.70
2018-09-26T12:38:22.977Z,44.80
2018-09-26T12:40:49.508Z,44.70
2018-09-26T12:43:16.456Z,44.80
2018-09-26T12:45:42.906Z,44.70
2018-09-26T12:48:09.398Z,44.70
2018-09-26T12:50:35.857Z,44.80
2018-09-26T12:53:02.334Z,44.70
2018-09-26T12:55:28.782Z,44.70
2018-09-26T12:57:55.239Z,44.70
2018-09-26T13:00:21.797Z,44.60
2018-09-26T13:02:48.369Z,44.70
2018-09-26T13:05:14.751Z,44.80
2018-09-26T13:07:41.239Z,44.80
2018-09-26T13:10:07.764Z,44.80
2018-09-26T13:12:34.216Z,44.80
2018-09-26T13:15:00.984Z,44.80
2018-09-26T13:17:27.438Z,44.70
2018-09-26T13:20:03.478Z,44.90
2018-09-26T13:22:29.925Z,44.80
2018-09-26T13:24:56.410Z,44.90
2018-09-26T13:27:22.867Z,44.80
2018-09-26T13:29:49.374Z,44.80
2018-09-26T13:32:15.859Z,44.80
2018-09-26T13:34:42.362Z,44.90
2018-09-26T13:37:08.841Z,44.90
2018-09-26T13:39:35.565Z,44.90
2018-09-26T13:42:01.901Z,44.90
2018-09-26T13:44:28.360Z,45.00
2018-09-26T13:46:54.895Z,45.00
2018-09-26T13:49:21.425Z,45.00
2018-09-26T13:51:47.961Z,45.10
2018-09-26T13:54:14.467Z,45.20
2018-09-26T13:56:40.921Z,45.20
2018-09-26T13:59:07.424Z,45.20
2018-09-26T14:01:33.971Z,45.10
2018-09-26T14:04:00.386Z,45.00
2018-09-26T14:06:26.849Z,45.10
2018-09-26T14:08:53.361Z,45.10
2018-09-26T14:11:19.821Z,45.10
2018-09-26T14:13:46.295Z,45.20
2018-09-26T14:16:12.782Z,45.20
2018-09-26T14:18:39.307Z,45.20
2018-09-26T14:21:05.826Z,45.10
2018-09-26T14:23:32.392Z,45.20
2018-09-26T14:25:58.895Z,45.10
2018-09-26T14:28:25.536Z,45.10
2018-09-26T14:30:52.055Z,45.20
2018-09-26T14:33:18.553Z,45.20
2018-09-26T14:35:45.022Z,45.20
2018-09-26T14:38:11.520Z,45.20
2018-09-26T14:40:37.959Z,45.20
2018-09-26T14:43:04.503Z,45.20
2018-09-26T14:45:31.141Z,45.20
2018-09-26T14:47:57.607Z,45.20
2018-09-26T14:50:24.921Z,45.10
2018-09-26T14:52:51.466Z,45.30
2018-09-26T14:55:17.882Z,45.80
2018-09-26T14:57:44.373Z,45.30
2018-09-26T15:00:10.917Z,45.30
2018-09-26T15:02:37.777Z,45.30
2018-09-26T15:05:04.380Z,45.40
2018-09-26T15:07:30.905Z,45.40
2018-09-26T15:09:57.404Z,45.40
2018-09-26T15:12:23.989Z,45.40
2018-09-26T15:14:50.421Z,45.40
2018-09-26T15:17:16.917Z,45.40
2018-09-26T15:19:43.392Z,45.50
2018-09-26T15:22:09.999Z,45.60
2018-09-26T15:24:36.753Z,45.60
2018-09-26T15:27:03.216Z,45.40
2018-09-26T15:29:29.661Z,45.50
2018-09-26T15:31:56.125Z,45.40
2018-09-26T15:34:22.896Z,45.60
2018-09-26T15:36:49.374Z,45.40
2018-09-26T15:39:15.854Z,45.60
2018-09-26T15:41:42.413Z,45.60
2018-09-26T15:44:08.838Z,45.60
2018-09-26T15:46:35.463Z,45.60
2018-09-26T15:49:01.998Z,45.60
2018-09-26T15:51:28.609Z,46.30
2018-09-26T15:53:55.125Z,46.00
2018-09-26T15:56:21.646Z,45.60
2018-09-26T15:58:48.394Z,45.70
2018-09-26T16:01:14.938Z,45.70
2018-09-26T16:03:41.488Z,45.70
2018-09-26T16:06:07.992Z,45.70
2018-09-26T16:08:34.467Z,45.80
2018-09-26T16:11:00.902Z,45.70
2018-09-26T16:13:27.411Z,45.70
2018-09-26T16:15:53.887Z,46.20
2018-09-26T16:18:20.497Z,45.70
2018-09-26T16:20:47.027Z,45.80
2018-09-26T16:23:13.621Z,45.60
2018-09-26T16:25:40.186Z,45.70
2018-09-26T16:28:06.631Z,45.70
2018-09-26T16:30:33.106Z,46.30
2018-09-26T16:32:59.650Z,45.70
2018-09-26T16:35:26.170Z,45.90
2018-09-26T16:37:52.640Z,46.00
2018-09-26T16:40:19.189Z,46.00
2018-09-26T16:42:45.809Z,46.00
2018-09-26T16:45:12.334Z,45.90
2018-09-26T16:47:38.770Z,45.60
2018-09-26T16:50:05.380Z,45.90
2018-09-26T16:52:31.909Z,46.00
2018-09-26T16:54:59.339Z,45.90
2018-09-26T16:57:25.795Z,45.70
2018-09-26T16:59:52.245Z,46.00
2018-09-26T17:02:18.743Z,46.10
2018-09-26T17:04:45.241Z,45.90
2018-09-26T17:07:11.745Z,46.00
2018-09-26T17:09:38.238Z,46.00
2018-09-26T17:12:05.011Z,46.10
2018-09-26T17:14:31.475Z,46.00
2018-09-26T17:16:57.954Z,46.00
2018-09-26T17:19:24.511Z,46.10
2018-09-26T17:21:50.890Z,46.00
2018-09-26T17:24:17.533Z,46.00
2018-09-26T17:26:44.015Z,46.10
2018-09-26T17:29:10.513Z,46.20
2018-09-26T17:31:36.992Z,45.90
2018-09-26T17:34:03.490Z,45.90
2018-09-26T17:36:29.946Z,45.70
2018-09-26T17:38:56.446Z,45.70
2018-09-26T17:41:22.912Z,45.70
2018-09-26T17:43:49.419Z,45.50
2018-09-26T17:46:16.009Z,45.40
2018-09-26T17:48:42.537Z,45.50
2018-09-26T17:51:09.016Z,45.00
2018-09-26T17:53:35.518Z,45.10
2018-09-26T17:56:02.028Z,44.90
2018-09-26T17:58:28.495Z,45.10
2018-09-26T18:00:54.983Z,45.20
2018-09-26T18:03:21.436Z,45.20
2018-09-26T18:05:47.914Z,45.30
2018-09-26T18:08:14.391Z,44.80
2018-09-26T18:10:40.943Z,45.20
2018-09-26T18:13:07.442Z,45.30
2018-09-26T18:15:33.963Z,45.20
2018-09-26T18:18:00.507Z,45.00
2018-09-26T18:20:26.999Z,45.60
2018-09-26T18:22:53.468Z,44.90
2018-09-26T18:25:20.012Z,44.90
2018-09-26T18:27:46.561Z,45.00
2018-09-26T18:30:13.035Z,44.90
2018-09-26T18:32:39.598Z,44.90
2018-09-26T18:35:06.060Z,44.90
2018-09-26T18:37:32.584Z,44.90
2018-09-26T18:39:59.055Z,44.70
2018-09-26T18:42:25.544Z,44.80
2018-09-26T18:44:52.343Z,44.80
2018-09-26T18:47:18.857Z,44.90
2018-09-26T18:49:45.346Z,45.00
2018-09-26T18:52:11.854Z,44.80
2018-09-26T18:54:38.896Z,44.70
2018-09-26T18:57:05.422Z,44.80
2018-09-26T18:59:31.887Z,44.80
2018-09-26T19:01:58.342Z,44.80
2018-09-26T19:04:24.920Z,44.70
2018-09-26T19:06:51.455Z,44.70
2018-09-26T19:09:17.986Z,44.80
2018-09-26T19:11:44.542Z,44.90
2018-09-26T19:14:10.993Z,44.70
2018-09-26T19:16:37.542Z,44.70
2018-09-26T19:19:04.079Z,44.90
2018-09-26T19:21:30.684Z,44.70
2018-09-26T19:23:57.213Z,44.80
2018-09-26T19:26:24.613Z,44.90
2018-09-26T19:28:51.125Z,44.90
2018-09-26T19:31:17.577Z,44.90
2018-09-26T19:33:44.097Z,45.00
2018-09-26T19:36:10.677Z,45.10
2018-09-26T19:38:38.930Z,45.00
2018-09-26T19:41:05.438Z,45.00
2018-09-26T19:43:31.951Z,45.10
2018-09-26T19:45:59.014Z,45.20
2018-09-26T19:48:25.495Z,45.00
2018-09-26T19:50:52.002Z,45.00
2018-09-26T19:53:18.562Z,45.00
2018-09-26T19:55:45.080Z,45.00
2018-09-26T19:58:11.585Z,45.10
2018-09-26T20:00:38.068Z,45.10
2018-09-26T20:03:04.567Z,45.10
2018-09-26T20:05:31.083Z,45.10
2018-09-26T20:07:57.589Z,45.10
2018-09-26T20:10:24.719Z,45.20
2018-09-26T20:12:51.112Z,45.20
2018-09-26T20:15:17.737Z,45.20
2018-09-26T20:17:44.233Z,45.30
2018-09-26T20:20:10.731Z,45.90
2018-09-26T20:22:37.197Z,45.30
2018-09-26T20:25:03.719Z,45.20
2018-09-26T20:27:30.180Z,45.30
2018-09-26T20:29:56.692Z,45.30
2018-09-26T20:32:23.133Z,45.30
2018-09-26T20:34:49.645Z,45.20
2018-09-26T20:37:16.121Z,45.20
2018-09-26T20:39:42.637Z,45.20
2018-09-26T20:42:09.181Z,45.30
2018-09-26T20:44:36.111Z,45.30
2018-09-26T20:47:02.619Z,45.40
2018-09-26T20:49:29.142Z,45.40
2018-09-26T20:51:55.709Z,45.40
2018-09-26T20:54:22.295Z,45.40
2018-09-26T20:56:48.792Z,45.60
2018-09-26T20:59:15.298Z,45.50
2018-09-26T21:01:42.294Z,45.40
2018-09-26T21:04:08.800Z,45.40
2018-09-26T21:06:35.281Z,45.40
2018-09-26T21:09:01.813Z,45.60
2018-09-26T21:11:28.414Z,45.60
2018-09-26T21:13:54.983Z,45.60
2018-09-26T21:16:21.489Z,45.40
2018-09-26T21:18:48.113Z,45.50
2018-09-26T21:21:14.737Z,45.60
2018-09-26T21:23:41.245Z,45.60
2018-09-26T21:26:08.063Z,45.80
2018-09-26T21:28:34.561Z,45.60
2018-09-26T21:31:01.032Z,45.60
2018-09-26T21:33:27.518Z,45.70
2018-09-26T21:35:54.199Z,45.70
2018-09-26T21:38:20.741Z,45.80
2018-09-26T21:40:47.321Z,45.80
2018-09-26T21:43:13.813Z,45.70
2018-09-26T21:45:40.456Z,45.80
2018-09-26T21:48:06.980Z,45.80
2018-09-26T21:50:33.419Z,45.70
2018-09-26T21:52:59.962Z,45.80
2018-09-26T21:55:26.443Z,46.30
2018-09-26T21:57:52.888Z,45.80
2018-09-26T22:00:19.373Z,45.80
2018-09-26T22:02:45.801Z,45.80
2018-09-26T22:05:12.518Z,45.80
2018-09-26T22:07:38.910Z,45.80
2018-09-26T22:10:05.329Z,45.80
2018-09-26T22:12:31.758Z,45.80
2018-09-26T22:14:58.337Z,45.80
2018-09-26T22:17:24.747Z,45.80
2018-09-26T22:19:51.129Z,45.80
2018-09-26T22:22:17.530Z,45.80
2018-09-26T22:24:43.921Z,45.80
2018-09-26T22:27:10.322Z,45.80
2018-09-26T22:29:36.736Z,45.80
2018-09-26T22:32:03.137Z,45.80
2018-09-26T22:34:29.523Z,45.70
2018-09-26T22:36:55.939Z,45.80
2018-09-26T22:39:22.335Z,45.80
2018-09-26T22:41:48.748Z,45.80
2018-09-26T22:44:15.145Z,45.80
2018-09-26T22:46:41.543Z,45.80
2018-09-26T22:49:07.944Z,45.80
2018-09-26T22:51:34.335Z,45.70
2018-09-26T22:54:00.740Z,45.70
2018-09-26T22:56:27.167Z,45.80
2018-09-26T22:58:53.582Z,45.70
2018-09-26T23:01:19.986Z,45.70
2018-09-26T23:03:46.372Z,45.70
2018-09-26T23:06:12.768Z,45.80
2018-09-26T23:08:39.166Z,45.80
2018-09-26T23:11:05.560Z,45.80
2018-09-26T23:13:31.943Z,45.70
2018-09-26T23:15:58.339Z,45.70
2018-09-26T23:18:24.727Z,45.70
2018-09-26T23:20:51.224Z,45.80
2018-09-26T23:23:17.677Z,45.70
2018-09-26T23:25:44.142Z,45.80
2018-09-26T23:28:10.692Z,45.80
2018-09-26T23:30:37.122Z,45.80
2018-09-26T23:33:03.570Z,45.70
2018-09-26T23:35:29.974Z,45.80
2018-09-26T23:37:56.363Z,45.80
2018-09-26T23:40:22.765Z,45.70
2018-09-26T23:42:49.176Z,45.70
2018-09-26T23:45:15.571Z,45.70
2018-09-26T23:47:42.022Z,45.70
2018-09-26T23:50:08.419Z,45.90
2018-09-26T23:52:34.831Z,45.80
2018-09-26T23:55:01.240Z,45.70
2018-09-26T23:57:27.641Z,45.70
2018-09-26T23:59:54.025Z,45.60
